sensor_id;sensor_type;location;lat;lon;timestamp;P1;P2;P0
45788;PMS7003;31492;54.856;26.318;2022-09-14T02:14:00;14.3;13.8;10
45788;PMS7003;31492;54.856;26.318;2022-09-14T02:18:18;11;10.5;8.3
45788;PMS7003;31492;54.856;26.318;2022-09-14T02:24:08;11.6;10.2;7.8
45788;PMS7003;31492;54.856;26.318;2022-09-14T02:29:06;9.6;8.8;7.4
45788;PMS7003;31492;54.856;26.318;2022-09-14T02:34:00;10.3;9.5;8
45788;PMS7003;31492;54.856;26.318;2022-09-14T02:39:10;9.4;9;7.4
45788;PMS7003;31492;54.856;26.318;2022-09-14T02:49:10;9.8;9.2;7.2
45788;PMS7003;31492;54.856;26.318;2022-09-14T02:54:03;10;9;7.3
45788;PMS7003;31492;54.856;26.318;2022-09-14T02:59:02;9.8;9.4;7
45788;PMS7003;31492;54.856;26.318;2022-09-14T03:04:04;8.8;7.8;6.2
45788;PMS7003;31492;54.856;26.318;2022-09-14T03:09:04;10.2;9;6.8
45788;PMS7003;31492;54.856;26.318;2022-09-14T03:14:02;9;7.8;6.3
45788;PMS7003;31492;54.856;26.318;2022-09-14T03:19:05;8;7.8;6.4
45788;PMS7003;31492;54.856;26.318;2022-09-14T03:24:06;9.2;8;6.4
45788;PMS7003;31492;54.856;26.318;2022-09-14T03:29:05;8.6;7.8;6.4
45788;PMS7003;31492;54.856;26.318;2022-09-14T03:34:09;8.6;7.6;6.4
45788;PMS7003;31492;54.856;26.318;2022-09-14T03:39:04;9.3;8.3;6.5
45788;PMS7003;31492;54.856;26.318;2022-09-14T03:43:56;8.4;6.8;5.2
45788;PMS7003;31492;54.856;26.318;2022-09-14T03:49:06;7.4;6.6;5.4
45788;PMS7003;31492;54.856;26.318;2022-09-14T03:54:06;8.8;8.2;6.6
45788;PMS7003;31492;54.856;26.318;2022-09-14T03:59:07;7.8;6.5;5.5
45788;PMS7003;31492;54.856;26.318;2022-09-14T04:03:52;8.2;7.4;6
45788;PMS7003;31492;54.856;26.318;2022-09-14T04:09:07;7.8;7.2;5.6
45788;PMS7003;31492;54.856;26.318;2022-09-14T04:13:52;7.8;7;5.6
45788;PMS7003;31492;54.856;26.318;2022-09-14T04:19:07;8.8;8.3;5.8
45788;PMS7003;31492;54.856;26.318;2022-09-14T04:24:08;8;7.2;5.8
45788;PMS7003;31492;54.856;26.318;2022-09-14T04:29:04;7;6.4;5
45788;PMS7003;31492;54.856;26.318;2022-09-14T04:34:05;7;6.6;5
45788;PMS7003;31492;54.856;26.318;2022-09-14T04:39:02;6.8;6;5.3
45788;PMS7003;31492;54.856;26.318;2022-09-14T04:44:04;6.6;5.8;5
45788;PMS7003;31492;54.856;26.318;2022-09-14T04:49:07;8;6.6;5
45788;PMS7003;31492;54.856;26.318;2022-09-14T04:54:05;6.6;6.6;5.8
45788;PMS7003;31492;54.856;26.318;2022-09-14T04:59:05;5.8;5.8;4.5
45788;PMS7003;31492;54.856;26.318;2022-09-14T05:04:05;6.2;6.2;5
45788;PMS7003;31492;54.856;26.318;2022-09-14T05:09:03;5.6;5.6;4.4
45788;PMS7003;31492;54.856;26.318;2022-09-14T05:14:03;5.8;5.4;4.2
45788;PMS7003;31492;54.856;26.318;2022-09-14T05:19:05;5.8;5.5;4.5
45788;PMS7003;31492;54.856;26.318;2022-09-14T05:24:10;6;5.8;4.8
45788;PMS7003;31492;54.856;26.318;2022-09-14T05:29:09;6.4;5.8;4.6
45788;PMS7003;31492;54.856;26.318;2022-09-14T05:34:04;7;6;4.6
45788;PMS7003;31492;54.856;26.318;2022-09-14T05:39:05;4.5;4.5;4
45788;PMS7003;31492;54.856;26.318;2022-09-14T05:44:03;5.6;5;4.2
45788;PMS7003;31492;54.856;26.318;2022-09-14T05:49:06;5.4;5.2;4
45788;PMS7003;31492;54.856;26.318;2022-09-14T05:54:04;6.8;5.6;4.2
45788;PMS7003;31492;54.856;26.318;2022-09-14T05:59:00;6.3;5.8;4.8
45788;PMS7003;31492;54.856;26.318;2022-09-14T06:03:53;6.4;5;4.6
45788;PMS7003;31492;54.856;26.318;2022-09-14T06:09:03;7.2;6.6;5.4
45788;PMS7003;31492;54.856;26.318;2022-09-14T06:14:03;6;5.2;3.8
45788;PMS7003;31492;54.856;26.318;2022-09-14T06:18:50;6;5.8;4.8
45788;PMS7003;31492;54.856;26.318;2022-09-14T06:24:02;7;6;5
45788;PMS7003;31492;54.856;26.318;2022-09-14T06:29:02;6.6;6;5
45788;PMS7003;31492;54.856;26.318;2022-09-14T06:34:04;7.4;6;5
45788;PMS7003;31492;54.856;26.318;2022-09-14T06:39:02;6.3;5.5;4.8
45788;PMS7003;31492;54.856;26.318;2022-09-14T06:44:03;6.4;5.8;4.6
45788;PMS7003;31492;54.856;26.318;2022-09-14T06:49:09;8.2;6.4;5.8
45788;PMS7003;31492;54.856;26.318;2022-09-14T06:54:05;7.8;6.6;5.4
45788;PMS7003;31492;54.856;26.318;2022-09-14T06:59:00;6.4;5.8;5
45788;PMS7003;31492;54.856;26.318;2022-09-14T07:04:03;7.3;6.8;5.8
45788;PMS7003;31492;54.856;26.318;2022-09-14T07:09:04;7.8;7;5.4
45788;PMS7003;31492;54.856;26.318;2022-09-14T07:14:01;7;6.6;5
45788;PMS7003;31492;54.856;26.318;2022-09-14T07:19:04;7.4;7.2;5.6
45788;PMS7003;31492;54.856;26.318;2022-09-14T07:24:02;8.3;7.5;6
45788;PMS7003;31492;54.856;26.318;2022-09-14T07:29:05;7.4;6.8;5.8
45788;PMS7003;31492;54.856;26.318;2022-09-14T07:34:03;8.8;8.2;5.8
45788;PMS7003;31492;54.856;26.318;2022-09-14T07:39:03;7.6;7.6;6.6
45788;PMS7003;31492;54.856;26.318;2022-09-14T07:44:03;7.5;7.3;6.5
45788;PMS7003;31492;54.856;26.318;2022-09-14T07:49:05;8.2;8.2;6.2
45788;PMS7003;31492;54.856;26.318;2022-09-14T07:54:04;8.3;7.5;6
45788;PMS7003;31492;54.856;26.318;2022-09-14T07:59:04;9.8;9.2;6.6
45788;PMS7003;31492;54.856;26.318;2022-09-14T08:04:01;11.4;9.6;7.2
45788;PMS7003;31492;54.856;26.318;2022-09-14T08:09:03;8;7.6;6.6
45788;PMS7003;31492;54.856;26.318;2022-09-14T08:14:04;9.3;8.5;7.3
45788;PMS7003;31492;54.856;26.318;2022-09-14T08:18:53;10.4;10.4;8
45788;PMS7003;31492;54.856;26.318;2022-09-14T08:24:03;11.8;11.4;8.6
45788;PMS7003;31492;54.856;26.318;2022-09-14T08:28:54;12;11.6;8
45788;PMS7003;31492;54.856;26.318;2022-09-14T08:33:38;12.5;12;9
45788;PMS7003;31492;54.856;26.318;2022-09-14T08:39:01;12.8;11;8.6
45788;PMS7003;31492;54.856;26.318;2022-09-14T08:43:58;12.4;11.6;9.2
45788;PMS7003;31492;54.856;26.318;2022-09-14T08:49:09;12;11;8.4
45788;PMS7003;31492;54.856;26.318;2022-09-14T08:54:03;13.8;13.3;9.8
45788;PMS7003;31492;54.856;26.318;2022-09-14T09:00:09;13.8;13;10
45788;PMS7003;31492;54.856;26.318;2022-09-14T09:04:12;16.6;14.8;11
45788;PMS7003;31492;54.856;26.318;2022-09-14T09:10:08;13.2;12.4;9.8
45788;PMS7003;31492;54.856;26.318;2022-09-14T09:14:04;15.5;14.3;10.5
45788;PMS7003;31492;54.856;26.318;2022-09-14T09:19:02;15.8;14;10
45788;PMS7003;31492;54.856;26.318;2022-09-14T09:24:20;16;14.8;10.8
45788;PMS7003;31492;54.856;26.318;2022-09-14T09:29:01;19.4;17;11.6
45788;PMS7003;31492;54.856;26.318;2022-09-14T09:34:01;15.8;15;11.8
45788;PMS7003;31492;54.856;26.318;2022-09-14T09:38:59;16.6;15;11.4
45788;PMS7003;31492;54.856;26.318;2022-09-14T09:44:01;17;14.4;11.2
45788;PMS7003;31492;54.856;26.318;2022-09-14T09:49:04;19;15.8;10.8
45788;PMS7003;31492;54.856;26.318;2022-09-14T09:54:04;15.8;15.4;11.4
45788;PMS7003;31492;54.856;26.318;2022-09-14T09:58:49;16.3;15;11.8
45788;PMS7003;31492;54.856;26.318;2022-09-14T10:04:03;19.2;16.2;11.8
45788;PMS7003;31492;54.856;26.318;2022-09-14T10:09:01;21.6;18.2;13.2
45788;PMS7003;31492;54.856;26.318;2022-09-14T10:14:01;19.2;17;13.2
45788;PMS7003;31492;54.856;26.318;2022-09-14T10:19:01;17.3;16.8;13.3
45788;PMS7003;31492;54.856;26.318;2022-09-14T10:24:02;17;14.8;12
45788;PMS7003;31492;54.856;26.318;2022-09-14T10:29:34;15.6;14.6;10.8
45788;PMS7003;31492;54.856;26.318;2022-09-14T10:34:01;13.8;13.4;9.8
45788;PMS7003;31492;54.856;26.318;2022-09-14T10:39:12;13;12.3;9.8
45788;PMS7003;31492;54.856;26.318;2022-09-14T10:44:06;11.4;10.6;8.6
45788;PMS7003;31492;54.856;26.318;2022-09-14T10:49:08;12;11;8.8
45788;PMS7003;31492;54.856;26.318;2022-09-14T10:53:54;11.8;11.4;9.4
45788;PMS7003;31492;54.856;26.318;2022-09-14T10:59:20;8.8;8.8;7.8
45788;PMS7003;31492;54.856;26.318;2022-09-14T11:04:08;10.4;9.6;7.8
45788;PMS7003;31492;54.856;26.318;2022-09-14T11:09:02;8.6;7.8;6.6
45788;PMS7003;31492;54.856;26.318;2022-09-14T11:19:38;6;5.3;4.5
45788;PMS7003;31492;54.856;26.318;2022-09-14T11:24:04;6.6;6;5
45788;PMS7003;31492;54.856;26.318;2022-09-14T11:29:34;6.8;6;4.8
45788;PMS7003;31492;54.856;26.318;2022-09-14T11:34:26;5.4;5.2;4.4
45788;PMS7003;31492;54.856;26.318;2022-09-14T11:39:28;5;5;4.5
45788;PMS7003;31492;54.856;26.318;2022-09-14T11:44:09;5.4;4.8;4.2
45788;PMS7003;31492;54.856;26.318;2022-09-14T11:54:01;5.6;5.6;4.6
45788;PMS7003;31492;54.856;26.318;2022-09-14T11:59:00;5;5;4
45788;PMS7003;31492;54.856;26.318;2022-09-14T12:04:11;4.8;4.8;4
45788;PMS7003;31492;54.856;26.318;2022-09-14T12:19:03;6;5.6;4.4
45788;PMS7003;31492;54.856;26.318;2022-09-14T12:24:11;5.5;5;4.3
45788;PMS7003;31492;54.856;26.318;2022-09-14T12:29:04;6.2;6.2;5.2
45788;PMS7003;31492;54.856;26.318;2022-09-14T12:34:36;5.8;5.6;4.6
45788;PMS7003;31492;54.856;26.318;2022-09-14T12:39:05;6.4;6;5.2
45788;PMS7003;31492;54.856;26.318;2022-09-14T12:44:27;6.3;6;5
45788;PMS7003;31492;54.856;26.318;2022-09-14T12:49:26;6.6;6.6;5.4
45788;PMS7003;31492;54.856;26.318;2022-09-14T12:54:09;6.2;5.8;4.8
45788;PMS7003;31492;54.856;26.318;2022-09-14T12:59:06;6.2;6;4.8
45788;PMS7003;31492;54.856;26.318;2022-09-14T13:04:03;6;6;5.5
45788;PMS7003;31492;54.856;26.318;2022-09-14T13:09:01;6.8;6.3;5.5
45788;PMS7003;31492;54.856;26.318;2022-09-14T13:14:01;6;6;4.7
45788;PMS7003;31492;54.856;26.318;2022-09-14T13:19:01;6.8;6.4;4.8
45788;PMS7003;31492;54.856;26.318;2022-09-14T13:24:17;6.8;6.2;5.4
45788;PMS7003;31492;54.856;26.318;2022-09-14T13:29:01;7;7;5.6
45788;PMS7003;31492;54.856;26.318;2022-09-14T13:34:01;5.8;5.3;4.5
45788;PMS7003;31492;54.856;26.318;2022-09-14T13:39:04;5.2;5;4.6
45788;PMS7003;31492;54.856;26.318;2022-09-14T13:44:05;5.6;5.6;5
45788;PMS7003;31492;54.856;26.318;2022-09-14T13:49:04;5.2;4.4;4
45788;PMS7003;31492;54.856;26.318;2022-09-14T13:54:34;4.8;4.8;3.8
45788;PMS7003;31492;54.856;26.318;2022-09-14T13:59:12;5.4;4.6;3.8
45788;PMS7003;31492;54.856;26.318;2022-09-14T14:03:51;4.8;4.4;3.8
45788;PMS7003;31492;54.856;26.318;2022-09-14T14:09:04;4.8;4.8;4.3
45788;PMS7003;31492;54.856;26.318;2022-09-14T14:14:11;5;4.8;3.8
45788;PMS7003;31492;54.856;26.318;2022-09-14T14:18:50;5.4;4.6;4
45788;PMS7003;31492;54.856;26.318;2022-09-14T14:24:34;5.6;5;4.2
45788;PMS7003;31492;54.856;26.318;2022-09-14T14:29:06;5.4;4.8;4
45788;PMS7003;31492;54.856;26.318;2022-09-14T14:34:09;4.4;4.4;3.4
45788;PMS7003;31492;54.856;26.318;2022-09-14T14:39:03;4.3;4.3;4
45788;PMS7003;31492;54.856;26.318;2022-09-14T14:44:03;3.8;3.8;3.3
45788;PMS7003;31492;54.856;26.318;2022-09-14T14:49:03;3.4;3.4;3.2
45788;PMS7003;31492;54.856;26.318;2022-09-14T14:54:03;3.6;3.4;3.2
45788;PMS7003;31492;54.856;26.318;2022-09-14T14:58:53;3.6;3.4;2.8
45788;PMS7003;31492;54.856;26.318;2022-09-14T15:04:05;3.5;3.5;3.5
45788;PMS7003;31492;54.856;26.318;2022-09-14T15:09:01;3.4;3.2;3
45788;PMS7003;31492;54.856;26.318;2022-09-14T15:14:01;4;4;3.2
45788;PMS7003;31492;54.856;26.318;2022-09-14T15:19:05;4.2;4.2;3.4
45788;PMS7003;31492;54.856;26.318;2022-09-14T15:24:05;5;3.7;3
45788;PMS7003;31492;54.856;26.318;2022-09-14T15:29:03;5;4.3;3.7
45788;PMS7003;31492;54.856;26.318;2022-09-14T15:34:01;4.5;4.3;3.5
45788;PMS7003;31492;54.856;26.318;2022-09-14T15:39:03;4.8;4.6;3.8
45788;PMS7003;31492;54.856;26.318;2022-09-14T15:44:01;5.6;4.8;4
45788;PMS7003;31492;54.856;26.318;2022-09-14T15:49:02;4.2;4.2;4
45788;PMS7003;31492;54.856;26.318;2022-09-14T15:54:03;4.8;4.5;3.8
45788;PMS7003;31492;54.856;26.318;2022-09-14T15:59:03;5.4;4.6;3.8
45788;PMS7003;31492;54.856;26.318;2022-09-14T16:04:04;5;4.8;3.5
45788;PMS7003;31492;54.856;26.318;2022-09-14T16:09:02;4.2;3.8;3.2
45788;PMS7003;31492;54.856;26.318;2022-09-14T16:14:03;4.4;4.4;4
45788;PMS7003;31492;54.856;26.318;2022-09-14T16:19:03;4.4;4.2;3.2
45788;PMS7003;31492;54.856;26.318;2022-09-14T16:24:03;3.6;3.6;3.2
45788;PMS7003;31492;54.856;26.318;2022-09-14T16:29:01;5;4.3;4
45788;PMS7003;31492;54.856;26.318;2022-09-14T16:34:03;3.8;3.8;3.4
45788;PMS7003;31492;54.856;26.318;2022-09-14T16:39:02;4.2;4;3.4
45788;PMS7003;31492;54.856;26.318;2022-09-14T16:44:03;4.2;3.6;3
45788;PMS7003;31492;54.856;26.318;2022-09-14T16:49:03;3.5;3.5;3
45788;PMS7003;31492;54.856;26.318;2022-09-14T16:54:03;3.8;3.8;3.6
45788;PMS7003;31492;54.856;26.318;2022-09-14T16:59:01;4.2;4.2;3.4
45788;PMS7003;31492;54.856;26.318;2022-09-14T17:04:02;4;3.4;3.4
45788;PMS7003;31492;54.856;26.318;2022-09-14T17:09:03;4.5;4.5;4
45788;PMS7003;31492;54.856;26.318;2022-09-14T17:14:03;4.4;3.6;3
45788;PMS7003;31492;54.856;26.318;2022-09-14T17:19:03;4.2;4.2;3.4
45788;PMS7003;31492;54.856;26.318;2022-09-14T17:24:03;4.4;4.4;3.6
45788;PMS7003;31492;54.856;26.318;2022-09-14T17:29:03;4.8;4;3.5
45788;PMS7003;31492;54.856;26.318;2022-09-14T17:34:01;3.8;3.2;2.6
45788;PMS7003;31492;54.856;26.318;2022-09-14T17:39:03;3;2.8;2.4
45788;PMS7003;31492;54.856;26.318;2022-09-14T17:44:01;3.6;3.2;3
45788;PMS7003;31492;54.856;26.318;2022-09-14T17:49:03;4.5;3.8;3
45788;PMS7003;31492;54.856;26.318;2022-09-14T17:53:55;2.8;2.8;2.4
45788;PMS7003;31492;54.856;26.318;2022-09-14T17:59:04;3.8;3.4;3
45788;PMS7003;31492;54.856;26.318;2022-09-14T18:04:04;3;2.6;2
45788;PMS7003;31492;54.856;26.318;2022-09-14T18:09:04;2.8;2.6;2.2
45788;PMS7003;31492;54.856;26.318;2022-09-14T18:14:01;3.3;2.8;2.3
45788;PMS7003;31492;54.856;26.318;2022-09-14T18:19:01;3.2;3;2.4
45788;PMS7003;31492;54.856;26.318;2022-09-14T18:24:01;3.4;2.8;2.4
45788;PMS7003;31492;54.856;26.318;2022-09-14T18:29:03;3.3;3;2.5
45788;PMS7003;31492;54.856;26.318;2022-09-14T18:34:03;3.3;3;2.7
45788;PMS7003;31492;54.856;26.318;2022-09-14T18:38:51;2.3;2.3;2.3
45788;PMS7003;31492;54.856;26.318;2022-09-14T18:44:03;2.2;2;1.6
45788;PMS7003;31492;54.856;26.318;2022-09-14T18:49:01;1.8;1.6;1.2
45788;PMS7003;31492;54.856;26.318;2022-09-14T18:54:02;1.8;1.4;1.4
45788;PMS7003;31492;54.856;26.318;2022-09-14T18:58:51;2;2;2
45788;PMS7003;31492;54.856;26.318;2022-09-14T19:04:04;2.4;2.2;2.2
45788;PMS7003;31492;54.856;26.318;2022-09-14T19:08:59;2.2;2.2;1.6
45788;PMS7003;31492;54.856;26.318;2022-09-14T19:14:02;1.8;1.8;1.4
45788;PMS7003;31492;54.856;26.318;2022-09-14T19:19:01;2;2;1.8
45788;PMS7003;31492;54.856;26.318;2022-09-14T19:24:04;1.4;1.4;1.2
45788;PMS7003;31492;54.856;26.318;2022-09-14T19:28:59;2.2;2;1.6
45788;PMS7003;31492;54.856;26.318;2022-09-14T19:34:03;2;1.6;1.4
45788;PMS7003;31492;54.856;26.318;2022-09-14T19:39:01;1.6;1.4;1.2
45788;PMS7003;31492;54.856;26.318;2022-09-14T19:44:05;2.5;2;1.8
45788;PMS7003;31492;54.856;26.318;2022-09-14T19:49:03;1.8;1.6;1.4
45788;PMS7003;31492;54.856;26.318;2022-09-14T19:54:05;3;2.8;2.4
45788;PMS7003;31492;54.856;26.318;2022-09-14T19:59:07;1.8;1.8;1.8
45788;PMS7003;31492;54.856;26.318;2022-09-14T20:03:53;3.3;2.8;2.5
45788;PMS7003;31492;54.856;26.318;2022-09-14T20:09:02;3.2;2.8;2.2
45788;PMS7003;31492;54.856;26.318;2022-09-14T20:14:03;2.8;2.6;2.2
45788;PMS7003;31492;54.856;26.318;2022-09-14T20:19:03;3.2;2.4;2
45788;PMS7003;31492;54.856;26.318;2022-09-14T20:24:01;3;2.8;2.5
45788;PMS7003;31492;54.856;26.318;2022-09-14T20:29:05;3.2;2.6;2.4
45788;PMS7003;31492;54.856;26.318;2022-09-14T20:34:03;4;3.4;2.2
45788;PMS7003;31492;54.856;26.318;2022-09-14T20:39:01;3.2;3.2;2.8
45788;PMS7003;31492;54.856;26.318;2022-09-14T20:44:03;3.8;3.3;2.5
45788;PMS7003;31492;54.856;26.318;2022-09-14T20:49:04;2.8;2.4;2
45788;PMS7003;31492;54.856;26.318;2022-09-14T20:54:03;2.4;2.2;2.2
45788;PMS7003;31492;54.856;26.318;2022-09-14T20:59:06;4;3.2;2.6
45788;PMS7003;31492;54.856;26.318;2022-09-14T21:04:03;3;2.8;2
45788;PMS7003;31492;54.856;26.318;2022-09-14T21:09:04;2.8;2.6;2.2
45788;PMS7003;31492;54.856;26.318;2022-09-14T21:14:07;2;2;1.8
45788;PMS7003;31492;54.856;26.318;2022-09-14T21:19:04;2;1.8;1.4
45788;PMS7003;31492;54.856;26.318;2022-09-14T21:23:41;2.8;2;2
45788;PMS7003;31492;54.856;26.318;2022-09-14T21:29:02;2;2;1.8
45788;PMS7003;31492;54.856;26.318;2022-09-14T21:34:01;2.2;2.2;1.6
45788;PMS7003;31492;54.856;26.318;2022-09-14T21:39:07;2.3;2.3;2.3
45788;PMS7003;31492;54.856;26.318;2022-09-14T21:44:01;2.3;1.5;1.3
45788;PMS7003;31492;54.856;26.318;2022-09-14T21:49:01;2.2;2;1.8
45788;PMS7003;31492;54.856;26.318;2022-09-14T21:54:03;2;1.8;1.8
45788;PMS7003;31492;54.856;26.318;2022-09-14T21:59:03;1.8;1.8;1.6
45788;PMS7003;31492;54.856;26.318;2022-09-14T22:03:57;2.3;2.3;2
45788;PMS7003;31492;54.856;26.318;2022-09-14T22:09:01;2;1.8;1.6
45788;PMS7003;31492;54.856;26.318;2022-09-14T22:14:08;1.8;1.8;1.6
45788;PMS7003;31492;54.856;26.318;2022-09-14T22:19:04;2.4;2.2;2
45788;PMS7003;31492;54.856;26.318;2022-09-14T22:24:02;2.3;2.3;2
45788;PMS7003;31492;54.856;26.318;2022-09-14T22:29:06;2.6;2.6;2.2
45788;PMS7003;31492;54.856;26.318;2022-09-14T22:34:01;3.3;2.5;2.5
45788;PMS7003;31492;54.856;26.318;2022-09-14T22:39:01;2.6;2.6;1.8
45788;PMS7003;31492;54.856;26.318;2022-09-14T22:44:03;2.6;2.6;1.8
